首页
METAR-TAF:

METAR-TAF

机场 :

内利斯空军基地

Nellis, 内华达州, 美国

纬度: 36-14N, 经度: 115-02W, 海拔: 570米

当前天气观测

该预报发布于1小时和0分钟前的00:55 UTC
风速17节,风向
温度 42°C
湿度 1%
气压 1007 hPa
能見度: 16.1公里
天空无云

METAR: KLSV 130055Z AUTO 17017KT 10SM CLR 42/M25 A2974 RMK AO2 SLP043 T04151252 $

时间: 18:55 (01:55 UTC)

预报

该预报发布于2小时和55分钟前的23:00 UTC
预报有效从12日的 23点(UTC)到 14日的 05点(UTC)
风速15节,风向,有时为20节阵风
能见度10公里或以上
天空无云
成为
从 13日的 02点(UTC)到 13日的 03点(UTC)
风速9节,风向
能见度10公里或以上
天空无云
成为
从 13日的 14点(UTC)到 13日的 15点(UTC)
风速6节,风向东转东南
能见度10公里或以上
天空无云
成为
从 13日的 18点(UTC)到 13日的 19点(UTC)
风速15节,风向,有时为20节阵风
能见度10公里或以上
天空无云
成为
从 14日的 01点(UTC)到 14日的 02点(UTC)
风速6节,风向西
能见度10公里或以上
天空无云

TAF: KLSV 122300Z 1223/1405 17015G20KT 9999 SKC 510009 QNH2969INS BECMG 1302/1303 19009KT 9999 SKC QNH2969INS BECMG 1314/1315 12006KT 9999 SKC QNH2975INS BECMG 1318/1319 18015G20KT 9999 SKC 510009 QNH2977INS BECMG 1401/1402 26006KT 9999 SKC QNH2983INS TX42/1223Z TN15/1312Z

超过4000个机场的气象观测和天气预报(METAR&TAF报告)。

可查询的气象台以黄色和红色小点在地图上表示。

将鼠标移到小点上方,可查看气象台名称。

然后点击查看天气观测和预报。

如需切换地图:点击带黑十字的绿色按钮放大地图;点击带横线的绿色按钮缩小地图;或者点击绿色箭头查看邻近地区的地图。


METAR-TAF: